createdAt,value
2022-09-25T00:01:25.862Z,26.92
2022-09-25T00:03:56.028Z,27.35
2022-09-25T00:06:25.731Z,26.58
2022-09-25T00:08:54.298Z,26.65
2022-09-25T00:11:24.926Z,26.60
2022-09-25T00:13:52.971Z,24.08
2022-09-25T00:16:22.459Z,23.65
2022-09-25T00:19:08.566Z,22.20
2022-09-25T00:21:38.977Z,19.33
2022-09-25T00:24:09.603Z,20.35
2022-09-25T00:26:40.024Z,20.05
2022-09-25T00:29:10.683Z,20.42
2022-09-25T00:31:38.768Z,18.90
2022-09-25T00:34:06.914Z,18.88
2022-09-25T00:36:37.004Z,16.98
2022-09-25T00:39:05.460Z,17.40
2022-09-25T00:41:33.730Z,18.80
2022-09-25T00:44:04.506Z,19.63
2022-09-25T00:46:37.785Z,19.25
2022-09-25T00:49:11.703Z,17.58
2022-09-25T00:51:45.660Z,16.70
2022-09-25T00:54:18.848Z,18.10
2022-09-25T00:56:49.914Z,17.55
2022-09-25T00:59:20.666Z,17.03
2022-09-25T01:01:48.831Z,18.00
2022-09-25T01:04:17.045Z,18.50
2022-09-25T01:06:46.489Z,18.60
2022-09-25T01:09:14.350Z,18.25
2022-09-25T01:11:42.184Z,17.98
2022-09-25T01:14:11.160Z,20.08
2022-09-25T01:16:44.624Z,18.70
2022-09-25T01:19:25.634Z,18.13
2022-09-25T01:22:01.640Z,17.75
2022-09-25T01:24:45.365Z,17.10
2022-09-25T01:27:52.420Z,19.70
2022-09-25T01:30:22.556Z,19.40
2022-09-25T01:32:59.667Z,19.33
2022-09-25T01:35:37.533Z,19.35
2022-09-25T01:38:15.141Z,17.83
2022-09-25T01:40:50.940Z,17.75
2022-09-25T01:43:24.068Z,19.83
2022-09-25T01:45:57.710Z,20.35
2022-09-25T01:48:28.801Z,21.65
2022-09-25T01:51:00.940Z,21.33
2022-09-25T01:53:32.558Z,20.58
2022-09-25T01:56:05.441Z,21.42
2022-09-25T01:58:38.518Z,19.85
2022-09-25T02:01:13.117Z,19.27
2022-09-25T02:03:45.212Z,18.55
2022-09-25T02:06:19.695Z,17.65
2022-09-25T02:08:52.461Z,18.33
2022-09-25T02:11:20.973Z,17.63
2022-09-25T02:13:52.222Z,18.00
2022-09-25T02:16:27.142Z,19.33
2022-09-25T02:19:13.437Z,18.17
2022-09-25T02:21:47.634Z,18.63
2022-09-25T02:24:21.697Z,18.00
2022-09-25T02:26:50.785Z,18.55
2022-09-25T02:29:20.038Z,18.40
2022-09-25T02:31:53.870Z,17.33
2022-09-25T02:34:22.750Z,17.50
2022-09-25T02:36:51.037Z,18.02
2022-09-25T02:39:22.889Z,17.85
2022-09-25T02:42:04.785Z,17.95
2022-09-25T02:44:40.894Z,18.73
2022-09-25T02:47:23.042Z,18.13
2022-09-25T02:49:59.296Z,18.75
2022-09-25T02:52:31.417Z,16.90
2022-09-25T02:55:06.733Z,16.23
2022-09-25T02:57:41.093Z,16.80
2022-09-25T03:00:10.444Z,17.25
2022-09-25T03:02:41.606Z,15.57
2022-09-25T03:05:13.571Z,15.02
2022-09-25T03:10:24.571Z,13.88
2022-09-25T03:12:52.849Z,15.00
2022-09-25T03:15:23.794Z,14.18
2022-09-25T03:17:53.252Z,16.70
2022-09-25T03:20:21.433Z,14.35
2022-09-25T03:22:49.190Z,13.30
2022-09-25T03:25:17.698Z,12.75
2022-09-25T03:27:47.913Z,14.43
2022-09-25T03:30:15.860Z,13.52
2022-09-25T03:32:43.670Z,14.23
2022-09-25T03:35:13.020Z,14.02
2022-09-25T03:37:40.753Z,13.18
2022-09-25T03:40:09.442Z,12.73
2022-09-25T03:42:38.830Z,14.55
2022-09-25T03:45:09.918Z,13.63
2022-09-25T03:47:37.881Z,13.68
2022-09-25T03:50:08.289Z,13.52
2022-09-25T03:52:37.401Z,13.45
2022-09-25T03:55:06.006Z,14.20
2022-09-25T03:57:34.198Z,13.40
2022-09-25T04:00:03.482Z,12.25
2022-09-25T04:02:31.588Z,13.13
2022-09-25T04:05:00.151Z,12.68
2022-09-25T04:07:28.125Z,12.77
2022-09-25T04:09:57.237Z,13.05
2022-09-25T04:12:25.335Z,12.65
2022-09-25T04:14:53.871Z,12.18
2022-09-25T04:17:21.944Z,12.43
2022-09-25T04:19:50.351Z,13.20
2022-09-25T04:22:18.234Z,11.95
2022-09-25T04:24:52.409Z,12.40
2022-09-25T04:27:23.754Z,12.07
2022-09-25T04:29:51.491Z,12.27
2022-09-25T04:32:37.045Z,11.98
2022-09-25T04:35:05.889Z,13.35
2022-09-25T04:37:33.774Z,12.38
2022-09-25T04:40:01.837Z,12.35
2022-09-25T04:42:31.313Z,12.10
2022-09-25T04:44:59.487Z,13.18
2022-09-25T04:47:30.007Z,12.25
2022-09-25T04:49:58.366Z,13.10
2022-09-25T04:52:26.293Z,13.30
2022-09-25T04:54:54.045Z,11.98
2022-09-25T04:57:53.454Z,12.07
2022-09-25T05:00:15.793Z,12.70
2022-09-25T05:02:43.955Z,11.88
2022-09-25T05:05:11.829Z,13.10
2022-09-25T05:07:39.778Z,12.88
2022-09-25T05:10:09.007Z,13.98
2022-09-25T05:12:37.148Z,13.30
2022-09-25T05:15:06.123Z,13.13
2022-09-25T05:17:35.526Z,12.27
2022-09-25T05:20:03.894Z,12.30
2022-09-25T05:22:32.102Z,12.50
2022-09-25T05:25:00.086Z,11.98
2022-09-25T05:27:27.899Z,11.73
2022-09-25T05:29:56.872Z,12.27
2022-09-25T05:32:25.058Z,11.88
2022-09-25T05:34:54.307Z,12.48
2022-09-25T05:37:22.044Z,12.27
2022-09-25T05:39:50.053Z,13.13
2022-09-25T05:42:19.287Z,11.93
2022-09-25T05:44:47.414Z,12.80
2022-09-25T05:47:15.854Z,12.30
2022-09-25T05:49:43.890Z,11.30
2022-09-25T05:52:12.930Z,9.93
2022-09-25T05:54:40.974Z,9.95
2022-09-25T05:57:08.828Z,13.73
2022-09-25T05:59:36.624Z,12.93
2022-09-25T06:02:04.845Z,13.98
2022-09-25T06:04:32.985Z,11.50
2022-09-25T06:07:02.559Z,10.85
2022-09-25T06:09:32.122Z,11.18
2022-09-25T06:12:00.261Z,11.35
2022-09-25T06:14:28.006Z,10.95
2022-09-25T06:16:56.537Z,11.30
2022-09-25T06:19:24.417Z,10.55
2022-09-25T06:21:52.506Z,11.32
2022-09-25T06:24:20.515Z,9.00
2022-09-25T06:26:49.597Z,10.65
2022-09-25T06:29:17.399Z,9.50
2022-09-25T06:31:46.296Z,10.02
2022-09-25T06:34:14.164Z,9.82
2022-09-25T06:36:42.477Z,10.15
2022-09-25T06:39:10.614Z,9.50
2022-09-25T06:41:38.457Z,9.75
2022-09-25T06:44:09.105Z,9.95
2022-09-25T06:46:37.358Z,8.88
2022-09-25T06:49:05.314Z,9.27
2022-09-25T06:51:36.204Z,9.18
2022-09-25T06:54:04.479Z,9.50
2022-09-25T06:56:32.329Z,9.23
2022-09-25T06:59:00.083Z,8.45
2022-09-25T07:01:29.599Z,8.63
2022-09-25T07:03:56.456Z,8.02
2022-09-25T07:06:27.812Z,8.52
2022-09-25T07:08:56.997Z,9.05
2022-09-25T07:11:27.983Z,8.55
2022-09-25T07:13:56.054Z,8.73
2022-09-25T07:16:25.359Z,9.07
2022-09-25T07:18:57.114Z,8.70
2022-09-25T07:21:27.726Z,7.95
2022-09-25T07:23:57.385Z,8.02
2022-09-25T07:26:26.790Z,8.98
2022-09-25T07:28:56.969Z,9.30
2022-09-25T07:31:26.539Z,8.43
2022-09-25T07:33:56.091Z,9.10
2022-09-25T07:36:24.551Z,9.43
2022-09-25T07:38:53.221Z,10.35
2022-09-25T07:41:22.802Z,10.70
2022-09-25T07:44:40.039Z,10.07
2022-09-25T07:46:46.429Z,10.10
2022-09-25T07:49:16.119Z,10.25
2022-09-25T07:51:43.946Z,9.10
2022-09-25T07:54:11.871Z,10.80
2022-09-25T07:56:39.893Z,10.68
2022-09-25T07:59:07.814Z,10.52
2022-09-25T08:01:42.621Z,10.43
2022-09-25T08:04:12.526Z,11.13
2022-09-25T08:06:41.737Z,9.77
2022-09-25T08:09:11.152Z,9.32
2022-09-25T08:11:39.979Z,9.60
2022-09-25T08:14:07.871Z,10.65
2022-09-25T08:16:35.907Z,9.40
2022-09-25T08:19:05.003Z,8.40
2022-09-25T08:21:33.125Z,8.05
2022-09-25T08:24:02.534Z,9.90
2022-09-25T08:26:31.901Z,12.15
2022-09-25T08:29:00.357Z,10.30
2022-09-25T08:31:28.710Z,10.20
2022-09-25T08:34:02.865Z,10.75
2022-09-25T08:36:43.007Z,11.85
2022-09-25T08:39:12.330Z,12.27
2022-09-25T08:41:48.602Z,12.75
2022-09-25T08:44:25.230Z,12.50
2022-09-25T08:47:19.295Z,11.50
2022-09-25T08:50:06.250Z,11.77
2022-09-25T08:52:36.297Z,13.35
2022-09-25T08:55:14.453Z,14.05
2022-09-25T08:57:45.291Z,16.38
2022-09-25T09:00:21.015Z,16.83
2022-09-25T09:02:55.532Z,17.90
2022-09-25T09:05:29.267Z,17.02
2022-09-25T09:08:02.254Z,18.20
2022-09-25T09:10:36.971Z,22.92
2022-09-25T09:13:15.864Z,27.52
2022-09-25T09:15:47.704Z,23.13
2022-09-25T09:18:24.089Z,29.50
2022-09-25T09:20:54.873Z,28.73
2022-09-25T09:23:25.430Z,26.95
2022-09-25T09:26:02.427Z,25.48
2022-09-25T09:29:11.297Z,27.88
2022-09-25T09:31:51.620Z,26.02
2022-09-25T09:35:05.817Z,24.73
2022-09-25T09:37:49.914Z,24.38
2022-09-25T09:40:47.229Z,22.88
2022-09-25T09:43:29.301Z,21.88
2022-09-25T09:46:03.870Z,21.42
2022-09-25T09:48:37.726Z,21.05
2022-09-25T09:51:10.310Z,19.70
2022-09-25T09:53:43.486Z,18.77
2022-09-25T09:56:15.630Z,17.73
2022-09-25T09:58:51.247Z,15.43
2022-09-25T10:01:40.290Z,15.45
2022-09-25T10:04:11.990Z,14.80
2022-09-25T10:06:44.957Z,12.52
2022-09-25T10:09:15.926Z,12.70
2022-09-25T10:11:46.279Z,11.98
2022-09-25T10:14:21.861Z,16.20
2022-09-25T10:16:51.603Z,12.95
2022-09-25T10:19:22.323Z,12.95
2022-09-25T10:21:54.856Z,12.88
2022-09-25T10:24:52.422Z,11.30
2022-09-25T10:27:28.961Z,10.40
2022-09-25T10:30:21.678Z,11.65
2022-09-25T10:32:58.071Z,14.60
2022-09-25T10:35:29.669Z,16.20
2022-09-25T10:37:59.715Z,18.05
2022-09-25T10:40:31.708Z,13.70
2022-09-25T10:43:08.065Z,13.35
2022-09-25T10:45:40.725Z,17.17
2022-09-25T10:48:44.678Z,26.90
2022-09-25T10:51:17.277Z,20.95
2022-09-25T10:53:46.127Z,16.40
2022-09-25T10:56:18.574Z,14.80
2022-09-25T11:01:18.999Z,10.95
2022-09-25T11:03:54.225Z,10.77
2022-09-25T11:06:25.841Z,11.48
2022-09-25T11:09:09.018Z,11.67
2022-09-25T11:11:39.234Z,13.38
2022-09-25T11:14:18.923Z,15.23
2022-09-25T11:16:52.588Z,14.73
2022-09-25T11:19:28.979Z,12.55
2022-09-25T11:22:07.742Z,12.77
2022-09-25T11:24:47.247Z,12.70
2022-09-25T11:27:21.618Z,11.55
2022-09-25T11:30:01.552Z,11.50
2022-09-25T11:32:39.307Z,10.93
2022-09-25T11:35:39.192Z,10.40
2022-09-25T11:38:16.588Z,10.80
2022-09-25T11:41:11.172Z,9.90
2022-09-25T11:43:52.073Z,11.27
2022-09-25T11:46:30.021Z,10.00
2022-09-25T11:49:12.236Z,10.65
2022-09-25T11:54:36.410Z,10.18
2022-09-25T11:57:11.315Z,10.48
2022-09-25T11:59:51.554Z,11.05
2022-09-25T12:02:32.447Z,12.55
2022-09-25T12:05:19.888Z,11.70
2022-09-25T12:08:08.528Z,12.07
2022-09-25T12:10:48.505Z,13.82
2022-09-25T12:13:22.853Z,12.85
2022-09-25T12:16:03.558Z,15.60
2022-09-25T12:18:55.330Z,13.70
2022-09-25T12:21:34.031Z,12.43
2022-09-25T12:24:12.202Z,13.55
2022-09-25T12:26:52.539Z,10.65
2022-09-25T12:29:39.742Z,10.18
2022-09-25T12:32:16.335Z,8.77
2022-09-25T12:35:02.224Z,9.30
2022-09-25T12:37:43.552Z,10.00
2022-09-25T12:40:21.953Z,9.70
2022-09-25T12:42:55.778Z,9.75
2022-09-25T12:45:31.121Z,10.55
2022-09-25T12:48:06.486Z,10.48
2022-09-25T12:50:39.532Z,13.65
2022-09-25T12:53:23.388Z,13.50
2022-09-25T12:55:56.982Z,12.77
2022-09-25T12:58:37.314Z,14.10
2022-09-25T13:01:12.011Z,14.95
2022-09-25T13:03:48.372Z,14.68
2022-09-25T13:06:26.020Z,15.10
2022-09-25T13:09:03.302Z,16.33
2022-09-25T13:11:39.010Z,17.10
2022-09-25T13:14:14.427Z,17.17
2022-09-25T13:16:44.737Z,18.08
2022-09-25T13:19:24.049Z,17.02
2022-09-25T13:21:52.954Z,16.33
2022-09-25T13:24:22.201Z,15.82
2022-09-25T13:26:55.127Z,16.30
2022-09-25T13:29:28.152Z,15.85
2022-09-25T13:32:04.637Z,15.65
2022-09-25T13:34:38.999Z,15.75
2022-09-25T13:37:09.078Z,15.82
2022-09-25T13:39:59.597Z,15.32
2022-09-25T13:42:30.500Z,14.60
2022-09-25T13:45:07.504Z,15.27
2022-09-25T13:47:57.216Z,16.02
2022-09-25T13:50:34.604Z,15.45
2022-09-25T13:53:24.818Z,15.52
2022-09-25T13:56:28.823Z,18.65
2022-09-25T13:59:22.989Z,18.85
2022-09-25T14:02:22.666Z,18.02
2022-09-25T14:04:50.582Z,16.58
2022-09-25T14:07:23.731Z,16.98
2022-09-25T14:09:55.628Z,18.90
2022-09-25T14:12:29.963Z,22.73
2022-09-25T14:15:04.410Z,17.77
2022-09-25T14:17:33.274Z,18.98
2022-09-25T14:20:04.646Z,16.52
2022-09-25T14:22:39.267Z,15.98
2022-09-25T14:25:27.371Z,16.67
2022-09-25T14:32:42.864Z,17.88
2022-09-25T14:35:21.804Z,16.95
2022-09-25T14:38:07.437Z,17.02
2022-09-25T14:40:38.094Z,16.27
2022-09-25T14:43:21.553Z,15.85
2022-09-25T14:46:03.104Z,14.85
2022-09-25T14:48:38.421Z,15.68
2022-09-25T14:51:10.283Z,17.83
2022-09-25T14:53:42.553Z,17.55
2022-09-25T14:56:14.635Z,16.40
2022-09-25T14:58:48.216Z,17.25
2022-09-25T15:01:24.531Z,17.50
2022-09-25T15:03:57.255Z,18.10
2022-09-25T15:06:31.507Z,17.92
2022-09-25T15:09:01.738Z,18.98
2022-09-25T15:11:40.915Z,18.65
2022-09-25T15:14:16.201Z,19.00
2022-09-25T15:17:02.634Z,18.17
2022-09-25T15:19:34.573Z,20.40
2022-09-25T15:22:03.032Z,18.98
2022-09-25T15:24:35.296Z,18.92
2022-09-25T15:27:06.695Z,17.75
2022-09-25T15:29:37.646Z,18.20
2022-09-25T15:32:07.037Z,20.92
2022-09-25T15:34:36.372Z,20.90
2022-09-25T15:37:20.973Z,21.35
2022-09-25T15:39:49.197Z,21.08
2022-09-25T15:42:17.320Z,21.70
2022-09-25T15:44:46.011Z,23.58
2022-09-25T15:47:51.664Z,24.65
2022-09-25T15:50:25.364Z,25.40
2022-09-25T15:52:56.303Z,24.58
2022-09-25T15:55:25.509Z,32.75
2022-09-25T15:57:56.453Z,29.60
2022-09-25T16:00:44.379Z,29.20
2022-09-25T16:03:36.775Z,42.90
2022-09-25T16:08:36.457Z,53.85
2022-09-25T16:11:14.419Z,34.85
2022-09-25T16:13:44.719Z,43.17
2022-09-25T16:16:22.218Z,33.35
2022-09-25T16:18:51.156Z,30.35
2022-09-25T16:21:26.439Z,27.95
2022-09-25T16:23:57.732Z,29.85
2022-09-25T16:26:29.949Z,29.90
2022-09-25T16:29:07.252Z,27.92
2022-09-25T16:31:37.115Z,28.95
2022-09-25T16:34:08.598Z,29.85
2022-09-25T16:36:43.302Z,29.65
2022-09-25T16:39:25.045Z,32.25
2022-09-25T16:41:54.699Z,29.00
2022-09-25T16:44:29.389Z,29.10
2022-09-25T16:47:21.818Z,29.27
2022-09-25T16:49:50.248Z,27.88
2022-09-25T16:52:22.616Z,30.65
2022-09-25T16:54:56.804Z,29.52
2022-09-25T16:57:27.900Z,38.38
2022-09-25T16:59:56.442Z,38.78
2022-09-25T17:02:35.931Z,35.03
2022-09-25T17:05:06.943Z,32.80
2022-09-25T17:07:36.131Z,32.10
2022-09-25T17:10:04.063Z,31.67
2022-09-25T17:12:32.560Z,37.67
2022-09-25T17:15:00.626Z,41.42
2022-09-25T17:17:29.659Z,41.88
2022-09-25T17:19:57.775Z,48.45
2022-09-25T17:22:29.985Z,38.50
2022-09-25T17:25:03.217Z,46.55
2022-09-25T17:27:31.162Z,50.58
2022-09-25T17:29:59.394Z,53.10
2022-09-25T17:32:29.420Z,40.85
2022-09-25T17:34:58.531Z,41.40
2022-09-25T17:37:26.492Z,38.90
2022-09-25T17:39:54.317Z,41.55
2022-09-25T17:42:26.609Z,45.60
2022-09-25T17:44:57.457Z,50.33
2022-09-25T17:47:25.367Z,54.42
2022-09-25T17:49:53.102Z,54.08
2022-09-25T17:52:21.978Z,63.15
2022-09-25T17:54:49.914Z,78.32
2022-09-25T17:57:17.973Z,70.60
2022-09-25T17:59:47.290Z,63.15
2022-09-25T18:02:17.425Z,76.63
2022-09-25T18:04:45.646Z,82.80
2022-09-25T18:07:15.247Z,86.63
2022-09-25T18:09:43.088Z,84.72
2022-09-25T18:12:10.803Z,80.65
2022-09-25T18:14:39.189Z,54.80
2022-09-25T18:17:08.315Z,58.22
2022-09-25T18:19:53.884Z,55.40
2022-09-25T18:22:25.315Z,55.20
2022-09-25T18:24:56.385Z,55.50
2022-09-25T18:27:26.136Z,64.10
2022-09-25T18:29:54.362Z,71.00
2022-09-25T18:32:24.411Z,67.53
2022-09-25T18:34:53.053Z,58.85
2022-09-25T18:37:20.887Z,57.17
2022-09-25T18:39:48.612Z,51.40
2022-09-25T18:42:16.680Z,49.08
2022-09-25T18:44:44.446Z,48.00
2022-09-25T18:47:13.113Z,54.08
2022-09-25T18:49:43.590Z,48.67
2022-09-25T18:52:11.525Z,48.35
2022-09-25T18:54:41.895Z,49.33
2022-09-25T18:57:10.767Z,51.97
2022-09-25T18:59:38.713Z,50.25
2022-09-25T19:02:06.864Z,48.95
2022-09-25T19:04:35.996Z,44.33
2022-09-25T19:07:05.045Z,47.63
2022-09-25T19:09:32.784Z,48.20
2022-09-25T19:12:01.218Z,46.08
2022-09-25T19:14:28.913Z,47.67
2022-09-25T19:16:56.654Z,45.97
2022-09-25T19:19:24.934Z,46.25
2022-09-25T19:21:52.635Z,44.50
2022-09-25T19:24:21.789Z,42.30
2022-09-25T19:26:50.430Z,44.88
2022-09-25T19:29:18.126Z,44.58
2022-09-25T19:31:45.964Z,43.03
2022-09-25T19:34:14.192Z,44.35
2022-09-25T19:36:42.001Z,47.38
2022-09-25T19:39:09.804Z,49.75
2022-09-25T19:41:41.015Z,42.10
2022-09-25T19:44:13.271Z,40.42
2022-09-25T19:46:42.603Z,42.63
2022-09-25T19:49:11.067Z,48.90
2022-09-25T19:51:39.491Z,49.45
2022-09-25T19:54:08.473Z,46.90
2022-09-25T19:56:40.420Z,47.65
2022-09-25T19:59:13.371Z,45.55
2022-09-25T20:01:42.812Z,46.45
2022-09-25T20:04:18.012Z,49.00
2022-09-25T20:06:46.876Z,45.80
2022-09-25T20:09:15.506Z,46.40
2022-09-25T20:11:43.629Z,45.92
2022-09-25T20:14:13.013Z,45.65
2022-09-25T20:16:41.197Z,45.75
2022-09-25T20:19:09.691Z,45.72
2022-09-25T20:21:39.855Z,45.15
2022-09-25T20:24:09.314Z,44.45
2022-09-25T20:26:37.439Z,45.85
2022-09-25T20:29:08.657Z,47.72
2022-09-25T20:31:39.818Z,47.83
2022-09-25T20:34:08.628Z,47.58
2022-09-25T20:36:39.002Z,48.13
2022-09-25T20:39:07.537Z,48.40
2022-09-25T20:41:35.873Z,48.30
2022-09-25T20:44:06.612Z,45.58
2022-09-25T20:46:34.683Z,44.80
2022-09-25T20:49:04.056Z,44.97
2022-09-25T20:51:35.051Z,45.20
2022-09-25T20:54:05.207Z,44.17
2022-09-25T20:56:34.931Z,46.05
2022-09-25T20:59:03.354Z,47.80
2022-09-25T21:01:34.648Z,54.75
2022-09-25T21:04:07.088Z,61.97
2022-09-25T21:06:36.748Z,55.75
2022-09-25T21:09:06.959Z,55.38
2022-09-25T21:11:35.338Z,58.75
2022-09-25T21:14:04.244Z,51.97
2022-09-25T21:16:34.363Z,46.80
2022-09-25T21:19:05.022Z,49.00
2022-09-25T21:21:34.831Z,44.92
2022-09-25T21:24:03.188Z,50.90
2022-09-25T21:26:32.349Z,54.58
2022-09-25T21:29:04.721Z,60.13
2022-09-25T21:34:04.634Z,61.92
2022-09-25T21:36:33.798Z,62.38
2022-09-25T21:39:02.049Z,63.65
2022-09-25T21:41:31.307Z,64.40
2022-09-25T21:44:01.150Z,58.72
2022-09-25T21:46:30.170Z,58.53
2022-09-25T21:49:00.265Z,58.20
2022-09-25T21:51:32.446Z,57.25
2022-09-25T21:54:01.139Z,57.95
2022-09-25T21:56:31.411Z,62.08
2022-09-25T21:59:07.356Z,66.85
2022-09-25T22:01:40.328Z,63.33
2022-09-25T22:04:12.137Z,64.60
2022-09-25T22:06:44.289Z,63.80
2022-09-25T22:09:15.330Z,60.13
2022-09-25T22:11:44.294Z,62.15
2022-09-25T22:14:16.138Z,60.78
2022-09-25T22:16:46.478Z,60.80
2022-09-25T22:19:16.908Z,60.30
2022-09-25T22:21:47.765Z,60.75
2022-09-25T22:24:16.274Z,59.60
2022-09-25T22:26:45.591Z,59.53
2022-09-25T22:29:14.156Z,60.05
2022-09-25T22:31:44.055Z,58.53
2022-09-25T22:34:17.798Z,56.83
2022-09-25T22:36:48.115Z,55.92
2022-09-25T22:39:18.226Z,54.80
2022-09-25T22:41:49.461Z,54.88
2022-09-25T22:44:17.439Z,55.28
2022-09-25T22:46:45.506Z,57.78
2022-09-25T22:49:13.842Z,54.67
2022-09-25T22:51:41.673Z,60.15
2022-09-25T22:54:14.165Z,58.75
2022-09-25T22:56:43.198Z,55.95
2022-09-25T22:59:13.910Z,56.53
2022-09-25T23:01:44.626Z,54.83
2022-09-25T23:04:14.786Z,57.58
2022-09-25T23:06:43.119Z,54.78
2022-09-25T23:09:15.493Z,53.95
2022-09-25T23:11:44.825Z,58.10
2022-09-25T23:14:16.932Z,57.13
2022-09-25T23:16:46.344Z,55.22
2022-09-25T23:19:14.896Z,54.75
2022-09-25T23:21:43.341Z,55.75
2022-09-25T23:24:15.435Z,58.60
2022-09-25T23:26:44.165Z,53.38
2022-09-25T23:29:14.081Z,52.05
2022-09-25T23:31:42.690Z,48.03
2022-09-25T23:34:11.363Z,53.22
2022-09-25T23:36:39.982Z,51.35
2022-09-25T23:39:09.354Z,51.63
2022-09-25T23:41:40.283Z,51.00
2022-09-25T23:44:10.113Z,52.10
2022-09-25T23:46:40.337Z,59.78
2022-09-25T23:49:08.757Z,56.13
2022-09-25T23:51:37.074Z,49.55
2022-09-25T23:54:05.094Z,48.92
2022-09-25T23:56:34.449Z,49.67
2022-09-25T23:59:05.006Z,50.13
